Terminal Aerodrome Forecast
Issued by NWS

Home | Current Version | Previous Version | Text Only | Print | Product List | Glossary On
Versions: 1 2 3 4 5 6 7 8 9 10 11 12 13 14
211
FTPA31 PHFO 070540
TAFHLI
TAF
PHLI 070540Z 0706/0806 36015G25KT P6SM VCSH SCT015 OVC035
     FM071000 01013KT P6SM VCSH SCT022 BKN050
     FM080500 02015KT P6SM SCT025 SCT050=

USA.gov is the U.S. government's official web portal to all federal, state and local government web resources and services.